Greenwood, Texas
Current Conditions -  °F | °C
As of 10:15 PM on Saturday 25 Oct 2014 (Local Time) from KLUD Reporting Station
Clear Clear  
Wind Chill: 76°   Ceiling: Unl
Heat Index: 76°   Visibility: 10mi
Dew Point: 58°   Wind: 12mph
Humidity: 54%   Direction: 170°S
Pressure: 30.06"   Gusts: NA
Location:  33.38°N, 97.47°W
Report Text: KLUD 260315Z AUTO 17010KT 10SM CLR 24/15 A3006 RMK AO2 T02430145
Loading
Personal Weather Stations






























Interactive Weather Map
Tropical Storm Tracking
New forecast layout! Learn more

10-Day Weather Forecast

Advertisements
Track Severe Weather on mobile